Terminal Aerodrome Forecast
Issued by NWS Bismarck, ND

Home | Current Version | Previous Version | Graphics & Text | Print | Product List | Glossary On
Versions: 1 2 3 4 5 6 7 8 9 10 11 12 13 14 15 16 17 18 19 20 21 22 23 24 25
000
FTUS43 KBIS 301732
TAFBIS
TAF
KBIS 301732Z 3018/0118 10007KT P6SM SCT050 BKN100 OVC150
     FM302200 14010KT P6SM VCTS SCT050CB BKN100
     FM010000 10008KT P6SM -SHRA VCTS BKN050CB BKN100
     FM010600 08006KT P6SM VCSH BKN035 OVC070
     FM011400 04006KT P6SM BKN030 OVC040=

USA.gov is the U.S. government's official web portal to all federal, state and local government web resources and services.